createdAt,value
2023-02-04T00:01:13.567Z,-0.79
2023-02-04T00:03:43.268Z,-0.80
2023-02-04T00:06:13.008Z,-0.80
2023-02-04T00:08:41.939Z,-0.80
2023-02-04T00:11:12.301Z,-0.80
2023-02-04T00:13:42.675Z,-0.77
2023-02-04T00:16:12.519Z,-0.77
2023-02-04T00:18:43.318Z,-0.76
2023-02-04T00:21:12.453Z,-0.75
2023-02-04T00:23:41.980Z,-0.75
2023-02-04T00:26:10.391Z,-0.74
2023-02-04T00:28:40.815Z,-0.74
2023-02-04T00:31:10.022Z,-0.74
2023-02-04T00:33:39.344Z,-0.77
2023-02-04T00:36:09.100Z,-0.77
2023-02-04T00:38:39.658Z,-0.74
2023-02-04T00:41:10.129Z,-0.73
2023-02-04T00:43:39.511Z,-0.72
2023-02-04T00:46:08.876Z,-0.71
2023-02-04T00:48:38.749Z,-0.69
2023-02-04T00:51:08.850Z,-0.65
2023-02-04T00:53:37.930Z,-0.64
2023-02-04T00:56:06.666Z,-0.65
2023-02-04T00:58:36.158Z,-0.68
2023-02-04T01:01:05.025Z,-0.73
2023-02-04T01:03:33.592Z,-0.77
2023-02-04T01:06:03.742Z,-0.80
2023-02-04T01:08:33.957Z,-0.82
2023-02-04T01:11:02.961Z,-0.81
2023-02-04T01:13:31.549Z,-0.80
2023-02-04T01:16:01.036Z,-0.79
2023-02-04T01:18:31.513Z,-0.78
2023-02-04T01:21:00.558Z,-0.79
2023-02-04T01:23:30.493Z,-0.78
2023-02-04T01:26:00.374Z,-0.79
2023-02-04T01:28:30.320Z,-0.76
2023-02-04T01:31:01.367Z,-0.74
2023-02-04T01:33:30.633Z,-0.72
2023-02-04T01:35:59.560Z,-0.70
2023-02-04T01:38:29.890Z,-0.69
2023-02-04T01:40:58.421Z,-0.68
2023-02-04T01:43:27.560Z,-0.68
2023-02-04T01:45:58.937Z,-0.69
2023-02-04T01:48:28.438Z,-0.69
2023-02-04T01:51:09.218Z,-0.70
2023-02-04T01:53:40.127Z,-0.70
2023-02-04T01:56:18.015Z,-0.69
2023-02-04T01:58:47.197Z,-0.68
2023-02-04T02:01:33.211Z,-0.67
2023-02-04T02:04:02.152Z,-0.65
2023-02-04T02:06:31.467Z,-0.65
2023-02-04T02:09:00.813Z,-0.64
2023-02-04T02:11:31.353Z,-0.62
2023-02-04T02:14:01.679Z,-0.60
2023-02-04T02:16:32.398Z,-0.56
2023-02-04T02:19:02.600Z,-0.53
2023-02-04T02:21:39.696Z,-0.51
2023-02-04T02:24:28.105Z,-0.48
2023-02-04T02:27:00.341Z,-0.43
2023-02-04T02:29:29.144Z,-0.41
2023-02-04T02:31:58.561Z,-0.41
2023-02-04T02:34:31.401Z,-0.42
2023-02-04T02:37:00.060Z,-0.41
2023-02-04T02:39:28.962Z,-0.41
2023-02-04T02:41:57.895Z,-0.43
2023-02-04T02:44:27.379Z,-0.44
2023-02-04T02:46:57.646Z,-0.46
2023-02-04T02:49:27.796Z,-0.46
2023-02-04T02:51:57.365Z,-0.47
2023-02-04T02:54:30.763Z,-0.46
2023-02-04T02:57:02.598Z,-0.46
2023-02-04T02:59:31.164Z,-0.44
2023-02-04T03:02:02.280Z,-0.42
2023-02-04T03:04:42.420Z,-0.39
2023-02-04T03:07:11.870Z,-0.37
2023-02-04T03:09:40.750Z,-0.36
2023-02-04T03:12:09.271Z,-0.35
2023-02-04T03:14:40.085Z,-0.33
2023-02-04T03:17:10.583Z,-0.30
2023-02-04T03:19:41.331Z,-0.27
2023-02-04T03:22:13.466Z,-0.24
2023-02-04T03:24:42.461Z,-0.21
2023-02-04T03:27:12.441Z,-0.16
2023-02-04T03:29:43.903Z,-0.11
2023-02-04T03:32:13.968Z,-0.07
2023-02-04T03:34:43.573Z,0.00
2023-02-04T03:37:14.056Z,0.08
2023-02-04T03:39:43.816Z,0.16
2023-02-04T03:42:13.709Z,0.24
2023-02-04T03:44:44.085Z,0.30
2023-02-04T03:47:14.122Z,0.37
2023-02-04T03:49:42.705Z,0.39
2023-02-04T03:52:11.342Z,0.36
2023-02-04T03:54:40.788Z,0.29
2023-02-04T03:57:11.456Z,0.18
2023-02-04T03:59:40.762Z,0.09
2023-02-04T04:02:11.732Z,0.03
2023-02-04T04:04:41.468Z,-0.03
2023-02-04T04:07:10.077Z,-0.08
2023-02-04T04:09:40.264Z,-0.13
2023-02-04T04:12:09.781Z,-0.11
2023-02-04T04:14:41.197Z,-0.10
2023-02-04T04:17:11.012Z,-0.10
2023-02-04T04:19:40.170Z,-0.10
2023-02-04T04:22:11.531Z,-0.09
2023-02-04T04:24:40.586Z,-0.10
2023-02-04T04:27:11.159Z,-0.11
2023-02-04T04:29:41.233Z,-0.10
2023-02-04T04:32:10.317Z,-0.11
2023-02-04T04:34:39.265Z,-0.14
2023-02-04T04:37:10.078Z,-0.16
2023-02-04T04:39:40.814Z,-0.20
2023-02-04T04:42:10.414Z,-0.26
2023-02-04T04:44:41.575Z,-0.35
2023-02-04T04:47:12.854Z,-0.44
2023-02-04T04:49:45.416Z,-0.49
2023-02-04T04:52:14.398Z,-0.51
2023-02-04T04:54:46.469Z,-0.51
2023-02-04T04:57:16.382Z,-0.50
2023-02-04T04:59:46.047Z,-0.48
2023-02-04T05:02:15.068Z,-0.47
2023-02-04T05:04:44.520Z,-0.47
2023-02-04T05:07:13.840Z,-0.49
2023-02-04T05:09:44.591Z,-0.51
2023-02-04T05:12:14.218Z,-0.53
2023-02-04T05:14:42.980Z,-0.54
2023-02-04T05:17:12.996Z,-0.63
2023-02-04T05:19:41.929Z,-0.71
2023-02-04T05:22:13.810Z,-0.75
2023-02-04T05:24:44.844Z,-0.79
2023-02-04T05:27:15.468Z,-0.86
2023-02-04T05:29:46.067Z,-0.93
2023-02-04T05:32:16.418Z,-0.97
2023-02-04T05:34:45.116Z,-0.96
2023-02-04T05:37:15.916Z,-0.92
2023-02-04T05:39:45.906Z,-0.89
2023-02-04T05:42:14.262Z,-0.87
2023-02-04T05:44:47.402Z,-0.82
2023-02-04T05:47:17.698Z,-0.77
2023-02-04T05:49:47.764Z,-0.72
2023-02-04T05:52:18.388Z,-0.67
2023-02-04T05:54:47.467Z,-0.61
2023-02-04T05:57:16.591Z,-0.56
2023-02-04T05:59:47.546Z,-0.52
2023-02-04T06:02:17.438Z,-0.48
2023-02-04T06:04:46.676Z,-0.41
2023-02-04T06:07:15.166Z,-0.31
2023-02-04T06:09:45.734Z,-0.20
2023-02-04T06:12:18.423Z,-0.08
2023-02-04T06:14:46.939Z,0.01
2023-02-04T06:17:20.271Z,0.10
2023-02-04T06:19:50.513Z,0.20
2023-02-04T06:22:20.819Z,0.29
2023-02-04T06:24:49.801Z,0.35
2023-02-04T06:27:23.723Z,0.41
2023-02-04T06:29:53.856Z,0.46
2023-02-04T06:32:27.670Z,0.49
2023-02-04T06:34:57.415Z,0.54
2023-02-04T06:37:27.550Z,0.57
2023-02-04T06:39:58.192Z,0.59
2023-02-04T06:42:27.260Z,0.61
2023-02-04T06:45:00.088Z,0.60
2023-02-04T06:47:29.341Z,0.60
2023-02-04T06:49:59.804Z,0.60
2023-02-04T06:52:29.637Z,0.62
2023-02-04T06:54:58.988Z,0.61
2023-02-04T06:57:29.044Z,0.63
2023-02-04T06:59:57.735Z,0.69
2023-02-04T07:02:28.009Z,0.76
2023-02-04T07:04:58.488Z,0.84
2023-02-04T07:07:28.082Z,0.91
2023-02-04T07:09:57.383Z,1.01
2023-02-04T07:12:27.038Z,1.05
2023-02-04T07:14:58.772Z,1.09
2023-02-04T07:17:27.589Z,1.15
2023-02-04T07:19:58.442Z,1.17
2023-02-04T07:22:27.288Z,1.21
2023-02-04T07:24:56.464Z,1.28
2023-02-04T07:27:25.018Z,1.38
2023-02-04T07:29:55.460Z,1.49
2023-02-04T07:32:34.421Z,1.61
2023-02-04T07:35:04.729Z,1.68
2023-02-04T07:37:36.765Z,1.69
2023-02-04T07:40:08.330Z,1.70
2023-02-04T07:42:37.764Z,1.73
2023-02-04T07:45:10.859Z,1.76
2023-02-04T07:47:41.621Z,1.82
2023-02-04T07:50:13.503Z,1.92
2023-02-04T07:52:42.874Z,2.04
2023-02-04T07:55:14.339Z,2.18
2023-02-04T07:57:44.778Z,2.28
2023-02-04T08:00:16.803Z,2.35
2023-02-04T08:02:46.128Z,2.44
2023-02-04T08:05:17.040Z,2.62
2023-02-04T08:07:48.335Z,2.86
2023-02-04T08:10:17.498Z,3.14
2023-02-04T08:12:50.339Z,3.31
2023-02-04T08:15:20.560Z,3.40
2023-02-04T08:17:52.350Z,3.51
2023-02-04T08:20:20.906Z,3.52
2023-02-04T08:22:50.033Z,3.47
2023-02-04T08:25:19.340Z,3.51
2023-02-04T08:27:48.973Z,3.56
2023-02-04T08:30:19.413Z,3.60
2023-02-04T08:32:48.793Z,3.67
2023-02-04T08:35:17.969Z,3.76
2023-02-04T08:37:48.370Z,4.00
2023-02-04T08:40:19.617Z,4.60
2023-02-04T08:42:50.729Z,5.59
2023-02-04T08:45:19.621Z,6.87
2023-02-04T08:47:52.286Z,7.99
2023-02-04T08:50:22.340Z,8.65
2023-02-04T08:52:52.481Z,8.95
2023-02-04T08:55:22.910Z,9.28
2023-02-04T08:57:54.181Z,9.51
2023-02-04T09:00:23.344Z,9.79
2023-02-04T09:02:53.843Z,9.96
2023-02-04T09:05:23.560Z,9.80
2023-02-04T09:07:52.660Z,9.77
2023-02-04T09:10:21.904Z,10.19
2023-02-04T09:12:56.091Z,10.65
2023-02-04T09:15:26.429Z,10.98
2023-02-04T09:18:04.918Z,11.21
2023-02-04T09:20:37.401Z,11.28
2023-02-04T09:23:09.575Z,11.02
2023-02-04T09:25:40.257Z,10.81
2023-02-04T09:28:11.995Z,10.52
2023-02-04T09:30:40.802Z,10.02
2023-02-04T09:33:10.602Z,9.39
2023-02-04T09:35:39.853Z,9.04
2023-02-04T09:38:09.249Z,8.97
2023-02-04T09:40:41.763Z,9.18
2023-02-04T09:43:21.854Z,9.25
2023-02-04T09:45:52.108Z,9.61
2023-02-04T09:48:22.566Z,10.22
2023-02-04T09:50:52.272Z,10.69
2023-02-04T09:53:22.951Z,11.32
2023-02-04T09:55:52.646Z,11.76
2023-02-04T09:58:23.390Z,11.78
2023-02-04T10:01:16.930Z,11.56
2023-02-04T10:03:49.105Z,11.16
2023-02-04T10:06:20.644Z,10.64
2023-02-04T10:08:51.102Z,9.89
2023-02-04T10:11:21.626Z,9.20
2023-02-04T10:13:54.977Z,8.77
2023-02-04T10:16:34.442Z,8.30
2023-02-04T10:19:05.099Z,8.16
2023-02-04T10:21:37.524Z,8.68
2023-02-04T10:24:12.984Z,9.37
2023-02-04T10:26:41.892Z,9.92
2023-02-04T10:29:22.005Z,10.05
2023-02-04T10:31:52.699Z,10.26
2023-02-04T10:34:43.717Z,10.67
2023-02-04T10:37:20.600Z,11.07
2023-02-04T10:39:50.313Z,11.06
2023-02-04T10:42:31.992Z,10.82
2023-02-04T10:45:05.288Z,10.35
2023-02-04T10:47:36.551Z,10.06
2023-02-04T10:50:16.084Z,10.04
2023-02-04T10:52:47.774Z,10.36
2023-02-04T10:55:22.372Z,10.55
2023-02-04T10:57:53.149Z,10.55
2023-02-04T11:00:25.792Z,10.53
2023-02-04T11:02:58.935Z,10.41
2023-02-04T11:05:33.589Z,10.44
2023-02-04T11:08:03.362Z,10.50
2023-02-04T11:10:34.220Z,10.43
2023-02-04T11:13:06.017Z,10.14
2023-02-04T11:15:50.945Z,9.57
2023-02-04T11:18:20.578Z,8.86
2023-02-04T11:20:50.487Z,8.27
2023-02-04T11:23:33.201Z,7.78
2023-02-04T11:26:07.949Z,6.98
2023-02-04T11:28:50.946Z,6.38
2023-02-04T11:31:22.816Z,5.95
2023-02-04T11:34:04.114Z,5.57
2023-02-04T11:36:33.521Z,5.24
2023-02-04T11:39:09.007Z,5.03
2023-02-04T11:41:37.843Z,4.87
2023-02-04T11:44:08.642Z,4.87
2023-02-04T11:46:37.555Z,5.02
2023-02-04T11:49:15.942Z,5.24
2023-02-04T11:51:47.182Z,5.19
2023-02-04T11:54:19.881Z,4.97
2023-02-04T11:56:49.034Z,4.71
2023-02-04T11:59:21.543Z,4.48
2023-02-04T12:01:50.762Z,4.34
2023-02-04T12:04:25.614Z,4.24
2023-02-04T12:07:02.990Z,4.07
2023-02-04T12:09:34.257Z,3.93
2023-02-04T12:12:05.414Z,3.82
2023-02-04T12:14:38.210Z,3.67
2023-02-04T12:17:20.311Z,3.62
2023-02-04T12:19:50.698Z,3.63
2023-02-04T12:22:22.622Z,3.50
2023-02-04T12:24:53.859Z,3.36
2023-02-04T12:27:29.319Z,3.18
2023-02-04T12:29:59.013Z,2.92
2023-02-04T12:32:28.358Z,2.79
2023-02-04T12:35:06.610Z,2.66
2023-02-04T12:37:35.723Z,2.44
2023-02-04T12:40:12.332Z,2.18
2023-02-04T12:42:41.819Z,1.92
2023-02-04T12:45:14.082Z,1.67
2023-02-04T12:47:44.443Z,1.54
2023-02-04T12:50:23.986Z,1.50
2023-02-04T12:52:55.090Z,1.44
2023-02-04T12:55:28.205Z,1.32
2023-02-04T12:57:57.842Z,1.20
2023-02-04T13:00:28.066Z,1.10
2023-02-04T13:03:00.895Z,1.04
2023-02-04T13:05:31.229Z,0.90
2023-02-04T13:08:12.620Z,0.75
2023-02-04T13:10:41.255Z,0.64
2023-02-04T13:13:12.100Z,0.62
2023-02-04T13:15:43.613Z,0.67
2023-02-04T13:18:12.716Z,0.72
2023-02-04T13:20:44.555Z,0.73
2023-02-04T13:23:14.780Z,0.68
2023-02-04T13:25:45.610Z,0.68
2023-02-04T13:28:17.336Z,0.65
2023-02-04T13:30:46.675Z,0.57
2023-02-04T13:33:18.052Z,0.46
2023-02-04T13:35:50.006Z,0.33
2023-02-04T13:38:19.485Z,0.29
2023-02-04T13:40:49.901Z,0.30
2023-02-04T13:43:20.711Z,0.30
2023-02-04T13:45:50.944Z,0.24
2023-02-04T13:48:21.155Z,0.17
2023-02-04T13:50:54.038Z,0.11
2023-02-04T13:53:23.286Z,0.04
2023-02-04T13:55:54.952Z,-0.07
2023-02-04T13:58:25.950Z,-0.21
2023-02-04T14:00:57.702Z,-0.27
2023-02-04T14:03:28.389Z,-0.34
2023-02-04T14:05:56.752Z,-0.38
2023-02-04T14:08:25.764Z,-0.41
2023-02-04T14:10:55.016Z,-0.44
2023-02-04T14:13:24.273Z,-0.48
2023-02-04T14:15:55.537Z,-0.51
2023-02-04T14:18:26.588Z,-0.55
2023-02-04T14:20:56.271Z,-0.62
2023-02-04T14:23:25.993Z,-0.73
2023-02-04T14:25:56.378Z,-0.87
2023-02-04T14:28:25.081Z,-0.98
2023-02-04T14:31:02.898Z,-1.03
2023-02-04T14:33:31.577Z,-1.06
2023-02-04T14:36:03.915Z,-1.11
2023-02-04T14:38:34.354Z,-1.16
2023-02-04T14:41:04.462Z,-1.16
2023-02-04T14:43:38.709Z,-1.15
2023-02-04T14:46:08.359Z,-1.11
2023-02-04T14:48:37.574Z,-1.04
2023-02-04T14:51:06.910Z,-0.97
2023-02-04T14:53:36.739Z,-0.91
2023-02-04T14:56:06.160Z,-0.86
2023-02-04T14:58:36.029Z,-0.84
2023-02-04T15:01:06.492Z,-0.83
2023-02-04T15:03:38.047Z,-0.82
2023-02-04T15:06:07.991Z,-0.83
2023-02-04T15:08:37.416Z,-0.85
2023-02-04T15:11:12.323Z,-0.87
2023-02-04T15:13:41.043Z,-0.90
2023-02-04T15:16:15.922Z,-0.95
2023-02-04T15:18:46.532Z,-0.99
2023-02-04T15:21:22.798Z,-1.02
2023-02-04T15:23:53.867Z,-1.04
2023-02-04T15:26:26.253Z,-1.03
2023-02-04T15:28:57.171Z,-1.01
2023-02-04T15:31:27.844Z,-1.01
2023-02-04T15:33:57.400Z,-1.00
2023-02-04T15:36:26.286Z,-0.98
2023-02-04T15:38:55.936Z,-0.93
2023-02-04T15:41:27.376Z,-0.91
2023-02-04T15:43:57.128Z,-0.94
2023-02-04T15:46:26.203Z,-1.01
2023-02-04T15:48:54.644Z,-1.08
2023-02-04T15:51:24.681Z,-1.20
2023-02-04T15:53:54.825Z,-1.35
2023-02-04T15:56:24.642Z,-1.44
2023-02-04T15:58:53.719Z,-1.53
2023-02-04T16:01:24.183Z,-1.65
2023-02-04T16:03:56.844Z,-1.72
2023-02-04T16:06:26.139Z,-1.75
2023-02-04T16:08:55.048Z,-1.74
2023-02-04T16:11:25.696Z,-1.71
2023-02-04T16:13:55.083Z,-1.70
2023-02-04T16:16:25.610Z,-1.69
2023-02-04T16:18:54.837Z,-1.68
2023-02-04T16:21:31.087Z,-1.64
2023-02-04T16:24:01.942Z,-1.61
2023-02-04T16:26:32.684Z,-1.58
2023-02-04T16:29:02.718Z,-1.52
2023-02-04T16:31:33.943Z,-1.46
2023-02-04T16:34:03.576Z,-1.40
2023-02-04T16:36:35.041Z,-1.35
2023-02-04T16:39:05.256Z,-1.29
2023-02-04T16:41:36.634Z,-1.26
2023-02-04T16:44:05.720Z,-1.26
2023-02-04T16:46:36.487Z,-1.29
2023-02-04T16:49:07.014Z,-1.33
2023-02-04T16:51:36.104Z,-1.39
2023-02-04T16:54:07.044Z,-1.44
2023-02-04T16:56:39.643Z,-1.49
2023-02-04T16:59:09.430Z,-1.54
2023-02-04T17:01:42.104Z,-1.58
2023-02-04T17:04:14.157Z,-1.61
2023-02-04T17:06:46.073Z,-1.62
2023-02-04T17:09:16.247Z,-1.60
2023-02-04T17:11:45.753Z,-1.56
2023-02-04T17:14:19.778Z,-1.50
2023-02-04T17:16:52.258Z,-1.43
2023-02-04T17:19:21.670Z,-1.34
2023-02-04T17:21:51.024Z,-1.24
2023-02-04T17:24:21.499Z,-1.19
2023-02-04T17:26:51.832Z,-1.15
2023-02-04T17:29:23.522Z,-1.09
2023-02-04T17:31:53.523Z,-1.02
2023-02-04T17:34:24.970Z,-0.96
2023-02-04T17:36:54.977Z,-0.90
2023-02-04T17:39:24.735Z,-0.87
2023-02-04T17:41:53.547Z,-0.88
2023-02-04T17:44:27.105Z,-0.91
2023-02-04T17:46:59.551Z,-0.95
2023-02-04T17:49:29.595Z,-0.97
2023-02-04T17:52:01.098Z,-1.00
2023-02-04T17:54:32.849Z,-1.04
2023-02-04T17:57:18.430Z,-1.07
2023-02-04T17:59:48.671Z,-1.09
2023-02-04T18:02:29.857Z,-1.09
2023-02-04T18:05:00.999Z,-1.08
2023-02-04T18:07:32.756Z,-1.06
2023-02-04T18:10:11.651Z,-1.03
2023-02-04T18:12:40.308Z,-1.00
2023-02-04T18:15:27.864Z,-0.96
2023-02-04T18:18:18.899Z,-0.91
2023-02-04T18:20:48.885Z,-0.88
2023-02-04T18:23:19.494Z,-0.87
2023-02-04T18:25:49.108Z,-0.88
2023-02-04T18:28:23.357Z,-0.90
2023-02-04T18:30:54.969Z,-0.93
2023-02-04T18:33:27.005Z,-0.97
2023-02-04T18:36:00.571Z,-1.00
2023-02-04T18:38:35.189Z,-1.03
2023-02-04T18:41:23.885Z,-1.05
2023-02-04T18:44:02.661Z,-1.07
2023-02-04T18:46:34.101Z,-1.08
2023-02-04T18:49:09.320Z,-1.10
2023-02-04T18:51:41.444Z,-1.11
2023-02-04T18:54:42.378Z,-1.12
2023-02-04T18:57:16.040Z,-1.13
2023-02-04T18:59:46.592Z,-1.20
2023-02-04T19:02:24.245Z,-1.27
2023-02-04T19:05:11.304Z,-1.33
2023-02-04T19:07:43.429Z,-1.42
2023-02-04T19:10:28.169Z,-1.50
2023-02-04T19:13:33.419Z,-1.58
2023-02-04T19:16:25.132Z,-1.68
2023-02-04T19:18:56.739Z,-1.77
2023-02-04T19:21:31.263Z,-1.83
2023-02-04T19:24:09.606Z,-1.91
2023-02-04T19:26:41.219Z,-1.98
2023-02-04T19:29:30.981Z,-2.02
2023-02-04T19:32:07.121Z,-2.03
2023-02-04T19:34:38.659Z,-2.02
2023-02-04T19:37:49.427Z,-1.98
2023-02-04T19:40:22.681Z,-1.92
2023-02-04T19:42:54.268Z,-1.89
2023-02-04T19:45:27.304Z,-1.83
2023-02-04T19:47:56.670Z,-1.78
2023-02-04T19:50:29.541Z,-1.73
2023-02-04T19:53:02.301Z,-1.69
2023-02-04T19:55:42.165Z,-1.64
2023-02-04T19:58:24.348Z,-1.57
2023-02-04T20:01:00.213Z,-1.50
2023-02-04T20:03:42.992Z,-1.45
2023-02-04T20:06:30.089Z,-1.43
2023-02-04T20:09:25.472Z,-1.44
2023-02-04T20:12:08.529Z,-1.49
2023-02-04T20:14:47.237Z,-1.53
2023-02-04T20:17:19.594Z,-1.55
2023-02-04T20:19:49.558Z,-1.57
2023-02-04T20:22:24.472Z,-1.59
2023-02-04T20:25:00.196Z,-1.62
2023-02-04T20:27:40.479Z,-1.66
2023-02-04T20:30:11.935Z,-1.72
2023-02-04T20:32:42.669Z,-1.76
2023-02-04T20:35:15.640Z,-1.80
2023-02-04T20:37:50.115Z,-1.88
2023-02-04T20:40:29.295Z,-1.97
2023-02-04T20:43:04.948Z,-2.04
2023-02-04T20:45:38.846Z,-2.07
2023-02-04T20:48:28.349Z,-2.13
2023-02-04T20:50:59.293Z,-2.18
2023-02-04T20:53:36.432Z,-2.26
2023-02-04T20:56:34.017Z,-2.34
2023-02-04T20:59:18.699Z,-2.43
2023-02-04T21:01:51.254Z,-2.52
2023-02-04T21:04:30.492Z,-2.60
2023-02-04T21:07:03.395Z,-2.68
2023-02-04T21:09:38.242Z,-2.74
2023-02-04T21:12:09.126Z,-2.78
2023-02-04T21:14:38.276Z,-2.82
2023-02-04T21:17:08.580Z,-2.85
2023-02-04T21:19:38.912Z,-2.88
2023-02-04T21:22:10.505Z,-2.90
2023-02-04T21:24:40.354Z,-2.92
2023-02-04T21:27:09.703Z,-2.95
2023-02-04T21:29:42.481Z,-2.97
2023-02-04T21:32:13.813Z,-3.01
2023-02-04T21:34:43.375Z,-3.04
2023-02-04T21:37:13.622Z,-3.05
2023-02-04T21:39:43.894Z,-3.07
2023-02-04T21:42:14.422Z,-3.08
2023-02-04T21:44:43.925Z,-3.09
2023-02-04T21:47:14.456Z,-3.10
2023-02-04T21:49:44.795Z,-3.12
2023-02-04T21:52:15.365Z,-3.15
2023-02-04T21:54:45.288Z,-3.19
2023-02-04T21:57:16.881Z,-3.22
2023-02-04T21:59:48.433Z,-3.25
2023-02-04T22:02:18.309Z,-3.27
2023-02-04T22:04:49.551Z,-3.30
2023-02-04T22:07:20.521Z,-3.35
2023-02-04T22:09:50.400Z,-3.39
2023-02-04T22:12:19.766Z,-3.41
2023-02-04T22:14:50.567Z,-3.43
2023-02-04T22:17:21.281Z,-3.44
2023-02-04T22:19:51.114Z,-3.45
2023-02-04T22:22:20.532Z,-3.45
2023-02-04T22:24:50.126Z,-3.46
2023-02-04T22:27:20.548Z,-3.46
2023-02-04T22:29:50.028Z,-3.46
2023-02-04T22:32:19.995Z,-3.48
2023-02-04T22:34:51.228Z,-3.51
2023-02-04T22:37:21.968Z,-3.54
2023-02-04T22:39:52.210Z,-3.57
2023-02-04T22:42:22.207Z,-3.60
2023-02-04T22:44:51.704Z,-3.62
2023-02-04T22:47:21.272Z,-3.65
2023-02-04T22:49:52.350Z,-3.68
2023-02-04T22:52:26.064Z,-3.70
2023-02-04T22:54:55.097Z,-3.72
2023-02-04T22:57:26.084Z,-3.75
2023-02-04T22:59:56.772Z,-3.76
2023-02-04T23:02:26.756Z,-3.78
2023-02-04T23:04:56.047Z,-3.81
2023-02-04T23:07:27.130Z,-3.82
2023-02-04T23:09:56.806Z,-3.83
2023-02-04T23:12:28.131Z,-3.85
2023-02-04T23:14:56.802Z,-3.86
2023-02-04T23:17:25.755Z,-3.86
2023-02-04T23:19:58.438Z,-3.86
2023-02-04T23:22:27.983Z,-3.86
2023-02-04T23:25:00.138Z,-3.89
2023-02-04T23:27:31.038Z,-3.90
2023-02-04T23:30:00.261Z,-3.91
2023-02-04T23:32:32.253Z,-3.90
2023-02-04T23:35:02.774Z,-3.90
2023-02-04T23:37:33.505Z,-3.89
2023-02-04T23:40:03.838Z,-3.89
2023-02-04T23:42:34.391Z,-3.88
2023-02-04T23:45:03.319Z,-3.86
2023-02-04T23:47:34.409Z,-3.83
2023-02-04T23:50:04.523Z,-3.78
2023-02-04T23:52:33.104Z,-3.72
2023-02-04T23:55:02.236Z,-3.64
2023-02-04T23:57:31.391Z,-3.60
